Terminal Aerodrome Forecast
Issued by NWS

Current Version | Previous Version | Text Only | Print | Product List | Glossary On
Versions: 1 2 3 4 5 6 7 8 9 10 11 12 13 14 15
000
FTUS42 KMLB 312100 AAA
TAFSFB
TAF AMD
KSFB 312111Z 3121/0118 07012KT P6SM VCTS SCT030CB BKN050
      TEMPO 3121/3123 3SM TSRA BKN025CB
     FM010200 16003KT P6SM FEW060 SCT090 BKN250
     FM011400 20004KT P6SM FEW020 SCT250=

USA.gov is the U.S. government's official web portal to all federal, state and local government web resources and services.